sensor_id;sensor_type;location;lat;lon;timestamp;temperature;humidity
1880;DHT22;49285;49.002;8.390;2023-11-18T00:01:20;9.00;99.90
1880;DHT22;49285;49.002;8.390;2023-11-18T00:03:45;9.00;99.90
1880;DHT22;49285;49.002;8.390;2023-11-18T00:06:11;9.00;99.90
1880;DHT22;49285;49.002;8.390;2023-11-18T00:08:36;9.00;99.90
1880;DHT22;49285;49.002;8.390;2023-11-18T00:11:02;9.00;99.90
1880;DHT22;49285;49.002;8.390;2023-11-18T00:13:28;9.00;99.90
1880;DHT22;49285;49.002;8.390;2023-11-18T00:15:54;8.90;99.90
1880;DHT22;49285;49.002;8.390;2023-11-18T00:18:20;8.90;99.90
1880;DHT22;49285;49.002;8.390;2023-11-18T00:20:45;9.00;99.90
1880;DHT22;49285;49.002;8.390;2023-11-18T00:23:11;9.00;99.90
1880;DHT22;49285;49.002;8.390;2023-11-18T00:25:36;9.00;99.90
1880;DHT22;49285;49.002;8.390;2023-11-18T00:28:05;9.00;99.90
1880;DHT22;49285;49.002;8.390;2023-11-18T00:30:33;9.00;99.90
1880;DHT22;49285;49.002;8.390;2023-11-18T00:32:58;8.90;99.90
1880;DHT22;49285;49.002;8.390;2023-11-18T00:35:24;9.00;99.90
1880;DHT22;49285;49.002;8.390;2023-11-18T00:37:49;8.90;99.90
1880;DHT22;49285;49.002;8.390;2023-11-18T00:40:15;8.90;99.90
1880;DHT22;49285;49.002;8.390;2023-11-18T00:42:43;8.90;99.90
1880;DHT22;49285;49.002;8.390;2023-11-18T00:45:09;8.90;99.90
1880;DHT22;49285;49.002;8.390;2023-11-18T00:47:38;8.90;99.90
1880;DHT22;49285;49.002;8.390;2023-11-18T00:50:04;8.90;99.90
1880;DHT22;49285;49.002;8.390;2023-11-18T00:52:33;8.90;99.90
1880;DHT22;49285;49.002;8.390;2023-11-18T00:54:59;9.00;99.90
1880;DHT22;49285;49.002;8.390;2023-11-18T00:57:25;9.00;99.90
1880;DHT22;49285;49.002;8.390;2023-11-18T00:59:50;9.00;99.90
1880;DHT22;49285;49.002;8.390;2023-11-18T01:02:16;9.00;99.90
1880;DHT22;49285;49.002;8.390;2023-11-18T01:04:44;9.00;99.90
1880;DHT22;49285;49.002;8.390;2023-11-18T01:07:11;9.00;99.90
1880;DHT22;49285;49.002;8.390;2023-11-18T01:09:37;9.00;99.90
1880;DHT22;49285;49.002;8.390;2023-11-18T01:12:05;9.00;99.90
1880;DHT22;49285;49.002;8.390;2023-11-18T01:14:31;9.00;99.90
1880;DHT22;49285;49.002;8.390;2023-11-18T01:16:57;9.00;99.90
1880;DHT22;49285;49.002;8.390;2023-11-18T01:19:22;9.10;99.90
1880;DHT22;49285;49.002;8.390;2023-11-18T01:21:49;9.10;99.90
1880;DHT22;49285;49.002;8.390;2023-11-18T01:24:15;9.00;99.90
1880;DHT22;49285;49.002;8.390;2023-11-18T01:26:41;9.00;99.90
1880;DHT22;49285;49.002;8.390;2023-11-18T01:29:07;9.10;99.90
1880;DHT22;49285;49.002;8.390;2023-11-18T01:31:33;9.10;99.90
1880;DHT22;49285;49.002;8.390;2023-11-18T01:33:58;9.20;99.90
1880;DHT22;49285;49.002;8.390;2023-11-18T01:36:25;9.20;99.90
1880;DHT22;49285;49.002;8.390;2023-11-18T01:38:50;9.10;99.90
1880;DHT22;49285;49.002;8.390;2023-11-18T01:41:16;9.10;99.90
1880;DHT22;49285;49.002;8.390;2023-11-18T01:43:45;9.00;99.90
1880;DHT22;49285;49.002;8.390;2023-11-18T01:46:12;9.00;99.90
1880;DHT22;49285;49.002;8.390;2023-11-18T01:48:38;9.10;99.90
1880;DHT22;49285;49.002;8.390;2023-11-18T01:51:06;9.10;99.90
1880;DHT22;49285;49.002;8.390;2023-11-18T01:53:34;9.10;99.90
1880;DHT22;49285;49.002;8.390;2023-11-18T01:56:02;9.00;99.90
1880;DHT22;49285;49.002;8.390;2023-11-18T01:58:28;9.00;99.90
1880;DHT22;49285;49.002;8.390;2023-11-18T02:00:56;9.00;99.90
1880;DHT22;49285;49.002;8.390;2023-11-18T02:03:22;9.10;99.90
1880;DHT22;49285;49.002;8.390;2023-11-18T02:05:47;9.10;99.90
1880;DHT22;49285;49.002;8.390;2023-11-18T02:08:13;9.20;99.90
1880;DHT22;49285;49.002;8.390;2023-11-18T02:11:17;9.10;99.90
1880;DHT22;49285;49.002;8.390;2023-11-18T02:13:42;9.20;99.90
1880;DHT22;49285;49.002;8.390;2023-11-18T02:16:10;9.10;99.90
1880;DHT22;49285;49.002;8.390;2023-11-18T02:18:38;9.10;99.90
1880;DHT22;49285;49.002;8.390;2023-11-18T02:21:07;9.10;99.90
1880;DHT22;49285;49.002;8.390;2023-11-18T02:23:34;9.00;99.90
1880;DHT22;49285;49.002;8.390;2023-11-18T02:25:59;9.00;99.90
1880;DHT22;49285;49.002;8.390;2023-11-18T02:28:27;9.10;99.90
1880;DHT22;49285;49.002;8.390;2023-11-18T02:31:01;9.10;99.90
1880;DHT22;49285;49.002;8.390;2023-11-18T02:33:35;9.10;99.90
1880;DHT22;49285;49.002;8.390;2023-11-18T02:36:10;9.10;99.90
1880;DHT22;49285;49.002;8.390;2023-11-18T02:38:46;9.10;99.90
1880;DHT22;49285;49.002;8.390;2023-11-18T02:41:13;9.10;99.90
1880;DHT22;49285;49.002;8.390;2023-11-18T02:43:40;9.10;99.90
1880;DHT22;49285;49.002;8.390;2023-11-18T02:46:09;9.10;99.90
1880;DHT22;49285;49.002;8.390;2023-11-18T02:48:38;9.00;99.90
1880;DHT22;49285;49.002;8.390;2023-11-18T02:51:04;9.10;99.90
1880;DHT22;49285;49.002;8.390;2023-11-18T02:53:30;9.10;99.90
1880;DHT22;49285;49.002;8.390;2023-11-18T02:55:56;9.00;99.90
1880;DHT22;49285;49.002;8.390;2023-11-18T02:58:31;9.00;99.90
1880;DHT22;49285;49.002;8.390;2023-11-18T03:00:56;9.00;99.90
1880;DHT22;49285;49.002;8.390;2023-11-18T03:03:26;8.90;99.90
1880;DHT22;49285;49.002;8.390;2023-11-18T03:05:53;9.00;99.90
1880;DHT22;49285;49.002;8.390;2023-11-18T03:08:20;9.00;99.90
1880;DHT22;49285;49.002;8.390;2023-11-18T03:10:45;8.90;99.90
1880;DHT22;49285;49.002;8.390;2023-11-18T03:13:12;8.90;99.90
1880;DHT22;49285;49.002;8.390;2023-11-18T03:15:38;8.90;99.90
1880;DHT22;49285;49.002;8.390;2023-11-18T03:18:03;8.90;99.90
1880;DHT22;49285;49.002;8.390;2023-11-18T03:20:31;9.00;99.90
1880;DHT22;49285;49.002;8.390;2023-11-18T03:23:00;9.00;99.90
1880;DHT22;49285;49.002;8.390;2023-11-18T03:25:26;9.00;99.90
1880;DHT22;49285;49.002;8.390;2023-11-18T03:27:52;9.00;99.90
1880;DHT22;49285;49.002;8.390;2023-11-18T03:30:20;9.00;99.90
1880;DHT22;49285;49.002;8.390;2023-11-18T03:32:45;9.00;99.90
1880;DHT22;49285;49.002;8.390;2023-11-18T03:35:11;9.00;99.90
1880;DHT22;49285;49.002;8.390;2023-11-18T03:37:41;9.00;99.90
1880;DHT22;49285;49.002;8.390;2023-11-18T03:40:11;9.00;99.90
1880;DHT22;49285;49.002;8.390;2023-11-18T03:42:37;9.10;99.90
1880;DHT22;49285;49.002;8.390;2023-11-18T03:45:04;9.00;99.90
1880;DHT22;49285;49.002;8.390;2023-11-18T03:47:30;9.00;99.90
1880;DHT22;49285;49.002;8.390;2023-11-18T03:49:56;9.00;99.90
1880;DHT22;49285;49.002;8.390;2023-11-18T03:52:22;9.00;99.90
1880;DHT22;49285;49.002;8.390;2023-11-18T03:54:47;9.00;99.90
1880;DHT22;49285;49.002;8.390;2023-11-18T03:57:13;9.00;99.90
1880;DHT22;49285;49.002;8.390;2023-11-18T03:59:39;8.90;99.90
1880;DHT22;49285;49.002;8.390;2023-11-18T04:02:06;9.00;99.90
1880;DHT22;49285;49.002;8.390;2023-11-18T04:04:32;9.00;99.90
1880;DHT22;49285;49.002;8.390;2023-11-18T04:06:57;9.00;99.90
1880;DHT22;49285;49.002;8.390;2023-11-18T04:09:26;8.90;99.90
1880;DHT22;49285;49.002;8.390;2023-11-18T04:11:52;8.90;99.90
1880;DHT22;49285;49.002;8.390;2023-11-18T04:14:17;8.80;99.90
1880;DHT22;49285;49.002;8.390;2023-11-18T04:16:45;8.80;99.90
1880;DHT22;49285;49.002;8.390;2023-11-18T04:19:11;8.80;99.90
1880;DHT22;49285;49.002;8.390;2023-11-18T04:21:37;8.70;99.90
1880;DHT22;49285;49.002;8.390;2023-11-18T04:24:04;8.70;99.90
1880;DHT22;49285;49.002;8.390;2023-11-18T04:26:31;8.70;99.90
1880;DHT22;49285;49.002;8.390;2023-11-18T04:28:57;8.70;99.90
1880;DHT22;49285;49.002;8.390;2023-11-18T04:31:24;8.70;99.90
1880;DHT22;49285;49.002;8.390;2023-11-18T04:33:49;8.60;99.90
1880;DHT22;49285;49.002;8.390;2023-11-18T04:36:15;8.60;99.90
1880;DHT22;49285;49.002;8.390;2023-11-18T04:38:42;8.60;99.90
1880;DHT22;49285;49.002;8.390;2023-11-18T04:41:08;8.50;99.90
1880;DHT22;49285;49.002;8.390;2023-11-18T04:43:33;8.50;99.90
1880;DHT22;49285;49.002;8.390;2023-11-18T04:45:59;8.60;99.90
1880;DHT22;49285;49.002;8.390;2023-11-18T04:48:25;8.60;99.90
1880;DHT22;49285;49.002;8.390;2023-11-18T04:50:50;8.70;99.90
1880;DHT22;49285;49.002;8.390;2023-11-18T04:53:16;8.60;99.90
1880;DHT22;49285;49.002;8.390;2023-11-18T04:55:41;8.60;99.90
1880;DHT22;49285;49.002;8.390;2023-11-18T04:58:07;8.60;99.90
1880;DHT22;49285;49.002;8.390;2023-11-18T05:00:37;8.70;99.90
1880;DHT22;49285;49.002;8.390;2023-11-18T05:03:04;8.60;99.90
1880;DHT22;49285;49.002;8.390;2023-11-18T05:05:31;8.50;99.90
1880;DHT22;49285;49.002;8.390;2023-11-18T05:07:57;8.60;99.90
1880;DHT22;49285;49.002;8.390;2023-11-18T05:10:22;8.60;99.90
1880;DHT22;49285;49.002;8.390;2023-11-18T05:12:49;8.50;99.90
1880;DHT22;49285;49.002;8.390;2023-11-18T05:15:21;8.50;99.90
1880;DHT22;49285;49.002;8.390;2023-11-18T05:17:53;8.50;99.90
1880;DHT22;49285;49.002;8.390;2023-11-18T05:20:19;8.50;99.90
1880;DHT22;49285;49.002;8.390;2023-11-18T05:22:45;8.50;99.90
1880;DHT22;49285;49.002;8.390;2023-11-18T05:25:11;8.50;99.90
1880;DHT22;49285;49.002;8.390;2023-11-18T05:27:37;8.50;99.90
1880;DHT22;49285;49.002;8.390;2023-11-18T05:30:06;8.50;99.90
1880;DHT22;49285;49.002;8.390;2023-11-18T05:32:32;8.40;99.90
1880;DHT22;49285;49.002;8.390;2023-11-18T05:34:58;8.40;99.90
1880;DHT22;49285;49.002;8.390;2023-11-18T05:37:24;8.40;99.90
1880;DHT22;49285;49.002;8.390;2023-11-18T05:39:50;8.30;99.90
1880;DHT22;49285;49.002;8.390;2023-11-18T05:42:27;8.30;99.90
1880;DHT22;49285;49.002;8.390;2023-11-18T05:44:53;8.40;99.90
1880;DHT22;49285;49.002;8.390;2023-11-18T05:47:25;8.30;99.90
1880;DHT22;49285;49.002;8.390;2023-11-18T05:49:54;8.40;99.90
1880;DHT22;49285;49.002;8.390;2023-11-18T05:52:20;8.30;99.90
1880;DHT22;49285;49.002;8.390;2023-11-18T05:54:46;8.30;99.90
1880;DHT22;49285;49.002;8.390;2023-11-18T05:57:18;8.30;99.90
1880;DHT22;49285;49.002;8.390;2023-11-18T05:59:44;8.40;99.90
1880;DHT22;49285;49.002;8.390;2023-11-18T06:02:10;8.40;99.90
1880;DHT22;49285;49.002;8.390;2023-11-18T06:04:46;8.40;99.90
1880;DHT22;49285;49.002;8.390;2023-11-18T06:07:12;8.30;99.90
1880;DHT22;49285;49.002;8.390;2023-11-18T06:09:43;8.30;99.90
1880;DHT22;49285;49.002;8.390;2023-11-18T06:12:09;8.30;99.90
1880;DHT22;49285;49.002;8.390;2023-11-18T06:14:36;8.30;99.90
1880;DHT22;49285;49.002;8.390;2023-11-18T06:17:03;8.40;99.90
1880;DHT22;49285;49.002;8.390;2023-11-18T06:19:28;8.30;99.90
1880;DHT22;49285;49.002;8.390;2023-11-18T06:21:54;8.30;99.90
1880;DHT22;49285;49.002;8.390;2023-11-18T06:24:20;8.30;99.90
1880;DHT22;49285;49.002;8.390;2023-11-18T06:26:47;8.20;99.90
1880;DHT22;49285;49.002;8.390;2023-11-18T06:29:14;8.20;99.90
1880;DHT22;49285;49.002;8.390;2023-11-18T06:31:40;8.20;99.90
1880;DHT22;49285;49.002;8.390;2023-11-18T06:34:06;8.30;99.90
1880;DHT22;49285;49.002;8.390;2023-11-18T06:36:32;8.30;99.90
1880;DHT22;49285;49.002;8.390;2023-11-18T06:38:58;8.30;99.90
1880;DHT22;49285;49.002;8.390;2023-11-18T06:41:24;8.30;99.90
1880;DHT22;49285;49.002;8.390;2023-11-18T06:43:59;8.30;99.90
1880;DHT22;49285;49.002;8.390;2023-11-18T06:46:34;8.30;99.90
1880;DHT22;49285;49.002;8.390;2023-11-18T06:49:00;8.30;99.90
1880;DHT22;49285;49.002;8.390;2023-11-18T06:51:32;8.20;99.90
1880;DHT22;49285;49.002;8.390;2023-11-18T06:54:00;8.10;99.90
1880;DHT22;49285;49.002;8.390;2023-11-18T06:56:28;8.20;99.90
1880;DHT22;49285;49.002;8.390;2023-11-18T06:58:54;8.20;99.90
1880;DHT22;49285;49.002;8.390;2023-11-18T07:01:20;8.20;99.90
1880;DHT22;49285;49.002;8.390;2023-11-18T07:03:48;8.20;99.90
1880;DHT22;49285;49.002;8.390;2023-11-18T07:06:17;8.30;99.90
1880;DHT22;49285;49.002;8.390;2023-11-18T07:08:48;8.30;99.90
1880;DHT22;49285;49.002;8.390;2023-11-18T07:11:15;8.40;99.90
1880;DHT22;49285;49.002;8.390;2023-11-18T07:13:40;8.40;99.90
1880;DHT22;49285;49.002;8.390;2023-11-18T07:16:07;8.40;99.90
1880;DHT22;49285;49.002;8.390;2023-11-18T07:18:34;8.40;99.90
1880;DHT22;49285;49.002;8.390;2023-11-18T07:21:00;8.40;99.90
1880;DHT22;49285;49.002;8.390;2023-11-18T07:23:26;8.40;99.90
1880;DHT22;49285;49.002;8.390;2023-11-18T07:25:52;8.40;99.90
1880;DHT22;49285;49.002;8.390;2023-11-18T07:28:18;8.40;99.90
1880;DHT22;49285;49.002;8.390;2023-11-18T07:30:45;8.50;99.90
1880;DHT22;49285;49.002;8.390;2023-11-18T07:33:21;8.60;99.90
1880;DHT22;49285;49.002;8.390;2023-11-18T07:35:48;8.60;99.90
1880;DHT22;49285;49.002;8.390;2023-11-18T07:38:17;8.70;99.90
1880;DHT22;49285;49.002;8.390;2023-11-18T07:40:45;8.80;99.90
1880;DHT22;49285;49.002;8.390;2023-11-18T07:43:11;8.80;99.90
1880;DHT22;49285;49.002;8.390;2023-11-18T07:45:38;8.90;99.90
1880;DHT22;49285;49.002;8.390;2023-11-18T07:48:05;8.90;99.90
1880;DHT22;49285;49.002;8.390;2023-11-18T07:50:36;9.00;99.90
1880;DHT22;49285;49.002;8.390;2023-11-18T07:53:03;9.10;99.90
1880;DHT22;49285;49.002;8.390;2023-11-18T07:55:29;9.10;99.90
1880;DHT22;49285;49.002;8.390;2023-11-18T07:57:55;9.20;99.90
1880;DHT22;49285;49.002;8.390;2023-11-18T08:00:21;9.10;99.90
1880;DHT22;49285;49.002;8.390;2023-11-18T08:02:49;9.10;99.90
1880;DHT22;49285;49.002;8.390;2023-11-18T08:05:14;9.20;99.90
1880;DHT22;49285;49.002;8.390;2023-11-18T08:07:43;9.20;99.90
1880;DHT22;49285;49.002;8.390;2023-11-18T08:10:12;9.20;99.90
1880;DHT22;49285;49.002;8.390;2023-11-18T08:12:39;9.20;99.90
1880;DHT22;49285;49.002;8.390;2023-11-18T08:15:06;9.20;99.90
1880;DHT22;49285;49.002;8.390;2023-11-18T08:17:35;9.20;99.90
1880;DHT22;49285;49.002;8.390;2023-11-18T08:20:00;9.20;99.90
1880;DHT22;49285;49.002;8.390;2023-11-18T08:22:26;9.20;99.90
1880;DHT22;49285;49.002;8.390;2023-11-18T08:24:51;9.30;99.90
1880;DHT22;49285;49.002;8.390;2023-11-18T08:27:17;9.30;99.90
1880;DHT22;49285;49.002;8.390;2023-11-18T08:29:43;9.40;99.90
1880;DHT22;49285;49.002;8.390;2023-11-18T08:32:09;9.30;99.90
1880;DHT22;49285;49.002;8.390;2023-11-18T08:34:35;9.40;99.90
1880;DHT22;49285;49.002;8.390;2023-11-18T08:37:06;9.50;99.90
1880;DHT22;49285;49.002;8.390;2023-11-18T08:39:32;9.50;99.90
1880;DHT22;49285;49.002;8.390;2023-11-18T08:41:58;9.60;99.90
1880;DHT22;49285;49.002;8.390;2023-11-18T08:44:23;9.60;99.90
1880;DHT22;49285;49.002;8.390;2023-11-18T08:46:50;9.70;99.90
1880;DHT22;49285;49.002;8.390;2023-11-18T08:49:18;9.70;99.90
1880;DHT22;49285;49.002;8.390;2023-11-18T08:51:49;9.70;99.90
1880;DHT22;49285;49.002;8.390;2023-11-18T08:54:21;9.80;99.90
1880;DHT22;49285;49.002;8.390;2023-11-18T08:57:05;9.90;99.90
1880;DHT22;49285;49.002;8.390;2023-11-18T08:59:49;9.90;99.90
1880;DHT22;49285;49.002;8.390;2023-11-18T09:02:17;10.00;99.90
1880;DHT22;49285;49.002;8.390;2023-11-18T09:04:51;10.00;99.90
1880;DHT22;49285;49.002;8.390;2023-11-18T09:07:18;10.10;99.90
1880;DHT22;49285;49.002;8.390;2023-11-18T09:09:44;10.10;99.90
1880;DHT22;49285;49.002;8.390;2023-11-18T09:12:12;10.20;99.90
1880;DHT22;49285;49.002;8.390;2023-11-18T09:14:40;10.20;99.90
1880;DHT22;49285;49.002;8.390;2023-11-18T09:17:08;10.30;99.90
1880;DHT22;49285;49.002;8.390;2023-11-18T09:19:34;10.40;99.90
1880;DHT22;49285;49.002;8.390;2023-11-18T09:22:00;10.50;99.90
1880;DHT22;49285;49.002;8.390;2023-11-18T09:24:26;10.50;99.90
1880;DHT22;49285;49.002;8.390;2023-11-18T09:26:51;10.60;99.90
1880;DHT22;49285;49.002;8.390;2023-11-18T09:29:17;10.70;99.90
1880;DHT22;49285;49.002;8.390;2023-11-18T09:31:49;10.80;99.90
1880;DHT22;49285;49.002;8.390;2023-11-18T09:34:15;10.80;99.90
1880;DHT22;49285;49.002;8.390;2023-11-18T09:36:42;10.90;99.90
1880;DHT22;49285;49.002;8.390;2023-11-18T09:39:09;10.90;99.90
1880;DHT22;49285;49.002;8.390;2023-11-18T09:41:41;11.00;99.90
1880;DHT22;49285;49.002;8.390;2023-11-18T09:44:06;11.10;99.90
1880;DHT22;49285;49.002;8.390;2023-11-18T09:46:36;11.10;99.90
1880;DHT22;49285;49.002;8.390;2023-11-18T09:49:06;11.20;99.90
1880;DHT22;49285;49.002;8.390;2023-11-18T09:51:44;11.20;99.90
1880;DHT22;49285;49.002;8.390;2023-11-18T09:57:19;11.30;99.90
1880;DHT22;49285;49.002;8.390;2023-11-18T10:00:07;11.30;99.90
1880;DHT22;49285;49.002;8.390;2023-11-18T10:02:53;11.40;99.90
1880;DHT22;49285;49.002;8.390;2023-11-18T10:05:21;11.40;99.90
1880;DHT22;49285;49.002;8.390;2023-11-18T10:07:49;11.40;99.90
1880;DHT22;49285;49.002;8.390;2023-11-18T10:10:15;11.40;99.90
1880;DHT22;49285;49.002;8.390;2023-11-18T10:12:45;11.40;99.90
1880;DHT22;49285;49.002;8.390;2023-11-18T10:15:14;11.50;99.90
1880;DHT22;49285;49.002;8.390;2023-11-18T10:17:43;11.50;99.90
1880;DHT22;49285;49.002;8.390;2023-11-18T10:20:47;11.50;99.90
1880;DHT22;49285;49.002;8.390;2023-11-18T10:23:20;11.60;99.90
1880;DHT22;49285;49.002;8.390;2023-11-18T10:25:51;11.40;99.90
1880;DHT22;49285;49.002;8.390;2023-11-18T10:28:32;11.50;99.90
1880;DHT22;49285;49.002;8.390;2023-11-18T10:31:05;11.40;99.90
1880;DHT22;49285;49.002;8.390;2023-11-18T10:33:35;11.50;99.90
1880;DHT22;49285;49.002;8.390;2023-11-18T10:36:03;11.40;99.90
1880;DHT22;49285;49.002;8.390;2023-11-18T10:38:33;11.40;99.90
1880;DHT22;49285;49.002;8.390;2023-11-18T10:41:05;11.50;99.90
1880;DHT22;49285;49.002;8.390;2023-11-18T10:43:31;11.50;99.90
1880;DHT22;49285;49.002;8.390;2023-11-18T10:46:05;11.50;99.90
1880;DHT22;49285;49.002;8.390;2023-11-18T10:48:49;11.50;99.90
1880;DHT22;49285;49.002;8.390;2023-11-18T10:51:17;11.50;99.90
1880;DHT22;49285;49.002;8.390;2023-11-18T10:53:47;11.50;99.90
1880;DHT22;49285;49.002;8.390;2023-11-18T10:56:22;11.40;99.90
1880;DHT22;49285;49.002;8.390;2023-11-18T10:58:56;11.40;99.90
1880;DHT22;49285;49.002;8.390;2023-11-18T11:01:30;11.40;99.90
1880;DHT22;49285;49.002;8.390;2023-11-18T11:04:00;11.30;99.90
1880;DHT22;49285;49.002;8.390;2023-11-18T11:06:30;11.20;99.90
1880;DHT22;49285;49.002;8.390;2023-11-18T11:08:57;11.20;99.90
1880;DHT22;49285;49.002;8.390;2023-11-18T11:11:35;11.20;99.90
1880;DHT22;49285;49.002;8.390;2023-11-18T11:14:04;11.10;99.90
1880;DHT22;49285;49.002;8.390;2023-11-18T11:16:41;11.00;99.90
1880;DHT22;49285;49.002;8.390;2023-11-18T11:19:20;11.10;99.90
1880;DHT22;49285;49.002;8.390;2023-11-18T11:21:59;11.00;99.90
1880;DHT22;49285;49.002;8.390;2023-11-18T11:28:07;11.00;99.90
1880;DHT22;49285;49.002;8.390;2023-11-18T11:30:46;10.90;99.90
1880;DHT22;49285;49.002;8.390;2023-11-18T11:33:57;10.90;99.90
1880;DHT22;49285;49.002;8.390;2023-11-18T11:36:34;10.80;99.90
1880;DHT22;49285;49.002;8.390;2023-11-18T11:39:01;10.90;99.90
1880;DHT22;49285;49.002;8.390;2023-11-18T11:41:29;10.80;99.90
1880;DHT22;49285;49.002;8.390;2023-11-18T11:43:59;10.80;99.90
1880;DHT22;49285;49.002;8.390;2023-11-18T11:46:27;10.90;99.90
1880;DHT22;49285;49.002;8.390;2023-11-18T11:49:01;11.00;99.90
1880;DHT22;49285;49.002;8.390;2023-11-18T11:51:36;11.00;99.90
1880;DHT22;49285;49.002;8.390;2023-11-18T11:54:11;11.10;99.90
1880;DHT22;49285;49.002;8.390;2023-11-18T11:56:49;11.10;99.90
1880;DHT22;49285;49.002;8.390;2023-11-18T12:02:22;10.90;99.90
1880;DHT22;49285;49.002;8.390;2023-11-18T12:04:53;10.90;99.90
1880;DHT22;49285;49.002;8.390;2023-11-18T12:07:24;10.90;99.90
1880;DHT22;49285;49.002;8.390;2023-11-18T12:09:56;11.00;99.90
1880;DHT22;49285;49.002;8.390;2023-11-18T12:12:24;11.10;99.90
1880;DHT22;49285;49.002;8.390;2023-11-18T12:14:54;11.00;99.90
1880;DHT22;49285;49.002;8.390;2023-11-18T12:17:25;11.10;99.90
1880;DHT22;49285;49.002;8.390;2023-11-18T12:19:54;11.10;99.90
1880;DHT22;49285;49.002;8.390;2023-11-18T12:22:25;11.00;99.90
1880;DHT22;49285;49.002;8.390;2023-11-18T12:27:45;11.00;99.90
1880;DHT22;49285;49.002;8.390;2023-11-18T12:35:30;10.90;99.90
1880;DHT22;49285;49.002;8.390;2023-11-18T12:40:55;10.90;99.90
1880;DHT22;49285;49.002;8.390;2023-11-18T12:49:05;10.90;99.90
1880;DHT22;49285;49.002;8.390;2023-11-18T12:51:32;10.90;99.90
1880;DHT22;49285;49.002;8.390;2023-11-18T12:54:01;11.00;99.90
1880;DHT22;49285;49.002;8.390;2023-11-18T12:56:28;11.00;99.90
1880;DHT22;49285;49.002;8.390;2023-11-18T12:58:55;10.90;99.90
1880;DHT22;49285;49.002;8.390;2023-11-18T13:01:22;11.00;99.90
1880;DHT22;49285;49.002;8.390;2023-11-18T13:03:47;10.90;99.90
1880;DHT22;49285;49.002;8.390;2023-11-18T13:06:14;10.90;99.90
1880;DHT22;49285;49.002;8.390;2023-11-18T13:08:40;11.00;99.90
1880;DHT22;49285;49.002;8.390;2023-11-18T13:11:06;11.00;99.90
1880;DHT22;49285;49.002;8.390;2023-11-18T13:13:38;11.10;99.90
1880;DHT22;49285;49.002;8.390;2023-11-18T13:16:04;11.10;99.90
1880;DHT22;49285;49.002;8.390;2023-11-18T13:18:44;11.10;99.90
1880;DHT22;49285;49.002;8.390;2023-11-18T13:21:14;11.10;99.90
1880;DHT22;49285;49.002;8.390;2023-11-18T13:23:41;11.20;99.90
1880;DHT22;49285;49.002;8.390;2023-11-18T13:26:07;11.20;99.90
1880;DHT22;49285;49.002;8.390;2023-11-18T13:28:35;11.20;99.90
1880;DHT22;49285;49.002;8.390;2023-11-18T13:31:00;11.30;99.90
1880;DHT22;49285;49.002;8.390;2023-11-18T13:33:26;11.30;99.90
1880;DHT22;49285;49.002;8.390;2023-11-18T13:35:52;11.30;99.90
1880;DHT22;49285;49.002;8.390;2023-11-18T13:38:18;11.40;99.90
1880;DHT22;49285;49.002;8.390;2023-11-18T13:40:47;11.40;99.90
1880;DHT22;49285;49.002;8.390;2023-11-18T13:43:13;11.50;99.90
1880;DHT22;49285;49.002;8.390;2023-11-18T13:45:40;11.40;99.90
1880;DHT22;49285;49.002;8.390;2023-11-18T13:48:07;11.30;99.90
1880;DHT22;49285;49.002;8.390;2023-11-18T13:50:37;11.30;99.90
1880;DHT22;49285;49.002;8.390;2023-11-18T13:53:03;11.30;99.90
1880;DHT22;49285;49.002;8.390;2023-11-18T13:55:31;11.20;99.90
1880;DHT22;49285;49.002;8.390;2023-11-18T13:57:58;11.20;99.90
1880;DHT22;49285;49.002;8.390;2023-11-18T14:00:27;11.30;99.90
1880;DHT22;49285;49.002;8.390;2023-11-18T14:02:56;11.30;99.90
1880;DHT22;49285;49.002;8.390;2023-11-18T14:05:23;11.30;99.90
1880;DHT22;49285;49.002;8.390;2023-11-18T14:07:51;11.30;99.90
1880;DHT22;49285;49.002;8.390;2023-11-18T14:10:18;11.30;99.90
1880;DHT22;49285;49.002;8.390;2023-11-18T14:13:04;11.30;99.90
1880;DHT22;49285;49.002;8.390;2023-11-18T14:15:31;11.40;99.90
1880;DHT22;49285;49.002;8.390;2023-11-18T14:18:01;11.50;99.90
1880;DHT22;49285;49.002;8.390;2023-11-18T14:20:26;11.50;99.90
1880;DHT22;49285;49.002;8.390;2023-11-18T14:22:52;11.50;99.90
1880;DHT22;49285;49.002;8.390;2023-11-18T14:25:17;11.60;99.90
1880;DHT22;49285;49.002;8.390;2023-11-18T14:27:43;11.60;99.90
1880;DHT22;49285;49.002;8.390;2023-11-18T14:30:09;11.60;99.90
1880;DHT22;49285;49.002;8.390;2023-11-18T14:32:35;11.60;99.90
1880;DHT22;49285;49.002;8.390;2023-11-18T14:35:01;11.60;99.90
1880;DHT22;49285;49.002;8.390;2023-11-18T14:37:27;11.60;99.90
1880;DHT22;49285;49.002;8.390;2023-11-18T14:39:52;11.60;99.90
1880;DHT22;49285;49.002;8.390;2023-11-18T14:42:19;11.60;99.90
1880;DHT22;49285;49.002;8.390;2023-11-18T14:44:46;11.60;99.90
1880;DHT22;49285;49.002;8.390;2023-11-18T14:47:12;11.60;99.90
1880;DHT22;49285;49.002;8.390;2023-11-18T14:49:37;11.60;99.90
1880;DHT22;49285;49.002;8.390;2023-11-18T14:52:03;11.60;99.90
1880;DHT22;49285;49.002;8.390;2023-11-18T14:54:29;11.60;99.90
1880;DHT22;49285;49.002;8.390;2023-11-18T14:57:01;11.50;99.90
1880;DHT22;49285;49.002;8.390;2023-11-18T14:59:26;11.50;99.90
1880;DHT22;49285;49.002;8.390;2023-11-18T15:01:52;11.50;99.90
1880;DHT22;49285;49.002;8.390;2023-11-18T15:04:23;11.30;99.90
1880;DHT22;49285;49.002;8.390;2023-11-18T15:06:49;11.30;99.90
1880;DHT22;49285;49.002;8.390;2023-11-18T15:09:18;11.30;99.90
1880;DHT22;49285;49.002;8.390;2023-11-18T15:11:43;11.20;99.90
1880;DHT22;49285;49.002;8.390;2023-11-18T15:14:09;11.30;99.90
1880;DHT22;49285;49.002;8.390;2023-11-18T15:16:37;11.30;99.90
1880;DHT22;49285;49.002;8.390;2023-11-18T15:19:03;11.30;99.90
1880;DHT22;49285;49.002;8.390;2023-11-18T15:21:29;11.40;99.90
1880;DHT22;49285;49.002;8.390;2023-11-18T15:23:57;11.30;99.90
1880;DHT22;49285;49.002;8.390;2023-11-18T15:26:27;11.30;99.90
1880;DHT22;49285;49.002;8.390;2023-11-18T15:28:52;11.30;99.90
1880;DHT22;49285;49.002;8.390;2023-11-18T15:31:18;11.30;99.90
1880;DHT22;49285;49.002;8.390;2023-11-18T15:33:44;11.30;99.90
1880;DHT22;49285;49.002;8.390;2023-11-18T15:36:13;11.30;99.90
1880;DHT22;49285;49.002;8.390;2023-11-18T15:38:40;11.30;99.90
1880;DHT22;49285;49.002;8.390;2023-11-18T15:41:05;11.30;99.90
1880;DHT22;49285;49.002;8.390;2023-11-18T15:43:31;11.30;99.90
1880;DHT22;49285;49.002;8.390;2023-11-18T15:45:56;11.30;99.90
1880;DHT22;49285;49.002;8.390;2023-11-18T15:48:24;11.30;99.90
1880;DHT22;49285;49.002;8.390;2023-11-18T15:50:51;11.20;99.90
1880;DHT22;49285;49.002;8.390;2023-11-18T15:53:17;11.20;99.90
1880;DHT22;49285;49.002;8.390;2023-11-18T15:55:45;11.20;99.90
1880;DHT22;49285;49.002;8.390;2023-11-18T15:58:13;11.20;99.90
1880;DHT22;49285;49.002;8.390;2023-11-18T16:00:39;11.20;99.90
1880;DHT22;49285;49.002;8.390;2023-11-18T16:03:04;11.20;99.90
1880;DHT22;49285;49.002;8.390;2023-11-18T16:05:34;11.20;99.90
1880;DHT22;49285;49.002;8.390;2023-11-18T16:07:59;11.20;99.90
1880;DHT22;49285;49.002;8.390;2023-11-18T16:10:27;11.20;99.90
1880;DHT22;49285;49.002;8.390;2023-11-18T16:12:55;11.20;99.90
1880;DHT22;49285;49.002;8.390;2023-11-18T16:15:22;11.20;99.90
1880;DHT22;49285;49.002;8.390;2023-11-18T16:17:48;11.20;99.90
1880;DHT22;49285;49.002;8.390;2023-11-18T16:20:15;11.10;99.90
1880;DHT22;49285;49.002;8.390;2023-11-18T16:22:45;11.10;99.90
1880;DHT22;49285;49.002;8.390;2023-11-18T16:25:25;11.00;99.90
1880;DHT22;49285;49.002;8.390;2023-11-18T16:27:54;11.10;99.90